sensor_id;sensor_type;location;lat;lon;timestamp;P1;durP1;ratioP1;P2;durP2;ratioP2
73474;SDS011;61711;52.266;10.542;2023-08-07T00:02:07;7.43;;;5.10;;
73474;SDS011;61711;52.266;10.542;2023-08-07T00:04:33;8.30;;;5.20;;
73474;SDS011;61711;52.266;10.542;2023-08-07T00:06:59;7.88;;;5.32;;
73474;SDS011;61711;52.266;10.542;2023-08-07T00:09:25;11.98;;;5.03;;
73474;SDS011;61711;52.266;10.542;2023-08-07T00:11:51;5.90;;;5.10;;
73474;SDS011;61711;52.266;10.542;2023-08-07T00:14:17;9.50;;;5.38;;
73474;SDS011;61711;52.266;10.542;2023-08-07T00:16:44;9.13;;;5.53;;
73474;SDS011;61711;52.266;10.542;2023-08-07T00:19:10;6.80;;;4.97;;
73474;SDS011;61711;52.266;10.542;2023-08-07T00:21:36;7.78;;;5.60;;
73474;SDS011;61711;52.266;10.542;2023-08-07T00:24:04;7.43;;;5.28;;
73474;SDS011;61711;52.266;10.542;2023-08-07T00:26:30;8.90;;;5.55;;
73474;SDS011;61711;52.266;10.542;2023-08-07T00:28:57;7.82;;;5.43;;
73474;SDS011;61711;52.266;10.542;2023-08-07T00:31:23;7.93;;;5.50;;
73474;SDS011;61711;52.266;10.542;2023-08-07T00:33:49;11.68;;;5.93;;
73474;SDS011;61711;52.266;10.542;2023-08-07T00:36:18;8.18;;;5.45;;
73474;SDS011;61711;52.266;10.542;2023-08-07T00:38:44;9.25;;;5.50;;
73474;SDS011;61711;52.266;10.542;2023-08-07T00:41:10;8.30;;;6.00;;
73474;SDS011;61711;52.266;10.542;2023-08-07T00:43:36;12.00;;;5.88;;
73474;SDS011;61711;52.266;10.542;2023-08-07T00:46:02;11.48;;;6.28;;
73474;SDS011;61711;52.266;10.542;2023-08-07T00:48:28;7.57;;;5.97;;
73474;SDS011;61711;52.266;10.542;2023-08-07T00:50:54;10.43;;;5.93;;
73474;SDS011;61711;52.266;10.542;2023-08-07T00:53:21;8.35;;;5.95;;
73474;SDS011;61711;52.266;10.542;2023-08-07T00:55:47;8.00;;;5.53;;
73474;SDS011;61711;52.266;10.542;2023-08-07T00:58:13;8.40;;;5.57;;
73474;SDS011;61711;52.266;10.542;2023-08-07T01:00:39;9.35;;;5.53;;
73474;SDS011;61711;52.266;10.542;2023-08-07T01:03:07;9.77;;;5.90;;
73474;SDS011;61711;52.266;10.542;2023-08-07T01:05:33;7.95;;;5.00;;
73474;SDS011;61711;52.266;10.542;2023-08-07T01:08:00;7.65;;;4.35;;
73474;SDS011;61711;52.266;10.542;2023-08-07T01:13:24;5.97;;;3.85;;
73474;SDS011;61711;52.266;10.542;2023-08-07T01:15:55;5.07;;;3.90;;
73474;SDS011;61711;52.266;10.542;2023-08-07T01:18:22;6.68;;;3.78;;
73474;SDS011;61711;52.266;10.542;2023-08-07T01:20:49;8.45;;;4.30;;
73474;SDS011;61711;52.266;10.542;2023-08-07T01:23:15;4.95;;;3.72;;
73474;SDS011;61711;52.266;10.542;2023-08-07T01:25:41;5.45;;;3.92;;
73474;SDS011;61711;52.266;10.542;2023-08-07T01:28:25;6.55;;;4.07;;
73474;SDS011;61711;52.266;10.542;2023-08-07T01:30:54;5.90;;;4.40;;
73474;SDS011;61711;52.266;10.542;2023-08-07T01:33:29;6.05;;;4.20;;
73474;SDS011;61711;52.266;10.542;2023-08-07T01:35:57;6.75;;;4.13;;
73474;SDS011;61711;52.266;10.542;2023-08-07T01:38:24;7.28;;;4.72;;
73474;SDS011;61711;52.266;10.542;2023-08-07T01:40:51;5.97;;;4.22;;
73474;SDS011;61711;52.266;10.542;2023-08-07T01:43:18;6.50;;;4.72;;
73474;SDS011;61711;52.266;10.542;2023-08-07T01:45:44;7.70;;;5.15;;
73474;SDS011;61711;52.266;10.542;2023-08-07T01:48:10;6.40;;;5.00;;
73474;SDS011;61711;52.266;10.542;2023-08-07T01:50:37;8.15;;;5.25;;
73474;SDS011;61711;52.266;10.542;2023-08-07T01:53:04;7.05;;;5.60;;
73474;SDS011;61711;52.266;10.542;2023-08-07T01:55:30;8.05;;;5.68;;
73474;SDS011;61711;52.266;10.542;2023-08-07T01:57:56;9.00;;;5.72;;
73474;SDS011;61711;52.266;10.542;2023-08-07T02:00:22;6.43;;;5.30;;
73474;SDS011;61711;52.266;10.542;2023-08-07T02:02:48;13.27;;;6.05;;
73474;SDS011;61711;52.266;10.542;2023-08-07T02:05:14;8.88;;;6.05;;
73474;SDS011;61711;52.266;10.542;2023-08-07T02:07:41;10.85;;;5.95;;
73474;SDS011;61711;52.266;10.542;2023-08-07T02:10:07;11.38;;;6.60;;
73474;SDS011;61711;52.266;10.542;2023-08-07T02:12:33;12.80;;;6.65;;
73474;SDS011;61711;52.266;10.542;2023-08-07T02:14:59;8.23;;;6.20;;
73474;SDS011;61711;52.266;10.542;2023-08-07T02:17:27;10.02;;;6.95;;
73474;SDS011;61711;52.266;10.542;2023-08-07T02:19:54;9.10;;;6.65;;
73474;SDS011;61711;52.266;10.542;2023-08-07T02:22:20;10.65;;;7.13;;
73474;SDS011;61711;52.266;10.542;2023-08-07T02:24:46;11.68;;;6.65;;
73474;SDS011;61711;52.266;10.542;2023-08-07T02:27:12;11.18;;;7.40;;
73474;SDS011;61711;52.266;10.542;2023-08-07T02:29:38;9.70;;;7.32;;
73474;SDS011;61711;52.266;10.542;2023-08-07T02:32:05;9.80;;;7.28;;
73474;SDS011;61711;52.266;10.542;2023-08-07T02:34:31;11.55;;;7.18;;
73474;SDS011;61711;52.266;10.542;2023-08-07T02:36:58;12.40;;;7.38;;
73474;SDS011;61711;52.266;10.542;2023-08-07T02:39:24;10.60;;;8.13;;
73474;SDS011;61711;52.266;10.542;2023-08-07T02:41:50;10.77;;;8.10;;
73474;SDS011;61711;52.266;10.542;2023-08-07T02:44:16;11.68;;;8.38;;
73474;SDS011;61711;52.266;10.542;2023-08-07T02:46:42;11.68;;;8.30;;
73474;SDS011;61711;52.266;10.542;2023-08-07T02:49:08;13.23;;;8.30;;
73474;SDS011;61711;52.266;10.542;2023-08-07T02:51:34;12.23;;;8.80;;
73474;SDS011;61711;52.266;10.542;2023-08-07T02:54:00;12.65;;;8.57;;
73474;SDS011;61711;52.266;10.542;2023-08-07T02:56:26;11.85;;;9.27;;
73474;SDS011;61711;52.266;10.542;2023-08-07T02:58:52;11.57;;;9.20;;
73474;SDS011;61711;52.266;10.542;2023-08-07T03:01:19;14.88;;;9.63;;
73474;SDS011;61711;52.266;10.542;2023-08-07T03:03:48;14.57;;;10.00;;
73474;SDS011;61711;52.266;10.542;2023-08-07T03:06:14;15.55;;;10.80;;
73474;SDS011;61711;52.266;10.542;2023-08-07T03:08:40;13.80;;;10.15;;
73474;SDS011;61711;52.266;10.542;2023-08-07T03:11:07;15.05;;;10.70;;
73474;SDS011;61711;52.266;10.542;2023-08-07T03:13:33;14.93;;;10.63;;
73474;SDS011;61711;52.266;10.542;2023-08-07T03:16:00;16.23;;;10.77;;
73474;SDS011;61711;52.266;10.542;2023-08-07T03:18:26;14.15;;;9.30;;
73474;SDS011;61711;52.266;10.542;2023-08-07T03:20:52;13.88;;;9.38;;
73474;SDS011;61711;52.266;10.542;2023-08-07T03:23:18;12.20;;;9.30;;
73474;SDS011;61711;52.266;10.542;2023-08-07T03:25:44;11.93;;;8.43;;
73474;SDS011;61711;52.266;10.542;2023-08-07T03:28:10;11.82;;;8.63;;
73474;SDS011;61711;52.266;10.542;2023-08-07T03:30:36;10.52;;;8.13;;
73474;SDS011;61711;52.266;10.542;2023-08-07T03:33:03;9.82;;;7.28;;
73474;SDS011;61711;52.266;10.542;2023-08-07T03:35:29;11.80;;;7.82;;
73474;SDS011;61711;52.266;10.542;2023-08-07T03:37:55;12.13;;;7.18;;
73474;SDS011;61711;52.266;10.542;2023-08-07T03:40:22;10.02;;;6.55;;
73474;SDS011;61711;52.266;10.542;2023-08-07T03:42:48;10.32;;;6.57;;
73474;SDS011;61711;52.266;10.542;2023-08-07T03:45:14;9.73;;;6.50;;
73474;SDS011;61711;52.266;10.542;2023-08-07T03:47:40;10.57;;;6.75;;
73474;SDS011;61711;52.266;10.542;2023-08-07T03:50:06;12.30;;;7.57;;
73474;SDS011;61711;52.266;10.542;2023-08-07T03:52:32;11.43;;;7.18;;
73474;SDS011;61711;52.266;10.542;2023-08-07T03:54:58;10.00;;;7.13;;
73474;SDS011;61711;52.266;10.542;2023-08-07T03:57:24;10.77;;;6.20;;
73474;SDS011;61711;52.266;10.542;2023-08-07T03:59:50;10.73;;;6.10;;
73474;SDS011;61711;52.266;10.542;2023-08-07T04:02:16;10.13;;;5.85;;
73474;SDS011;61711;52.266;10.542;2023-08-07T04:04:46;8.05;;;5.80;;
73474;SDS011;61711;52.266;10.542;2023-08-07T04:07:12;9.20;;;5.68;;
73474;SDS011;61711;52.266;10.542;2023-08-07T04:09:38;10.25;;;5.85;;
73474;SDS011;61711;52.266;10.542;2023-08-07T04:12:04;9.90;;;6.22;;
73474;SDS011;61711;52.266;10.542;2023-08-07T04:14:30;8.40;;;6.00;;
73474;SDS011;61711;52.266;10.542;2023-08-07T04:16:56;9.90;;;6.00;;
73474;SDS011;61711;52.266;10.542;2023-08-07T04:19:22;10.43;;;5.72;;
73474;SDS011;61711;52.266;10.542;2023-08-07T04:21:48;10.85;;;6.05;;
73474;SDS011;61711;52.266;10.542;2023-08-07T04:24:14;9.38;;;6.00;;
73474;SDS011;61711;52.266;10.542;2023-08-07T04:26:40;8.48;;;5.82;;
73474;SDS011;61711;52.266;10.542;2023-08-07T04:29:06;15.48;;;10.13;;
73474;SDS011;61711;52.266;10.542;2023-08-07T04:31:32;10.63;;;7.15;;
73474;SDS011;61711;52.266;10.542;2023-08-07T04:33:59;11.07;;;7.85;;
73474;SDS011;61711;52.266;10.542;2023-08-07T04:36:25;7.60;;;5.18;;
73474;SDS011;61711;52.266;10.542;2023-08-07T04:38:51;8.95;;;5.75;;
73474;SDS011;61711;52.266;10.542;2023-08-07T04:41:17;8.65;;;5.40;;
73474;SDS011;61711;52.266;10.542;2023-08-07T04:43:43;8.88;;;5.90;;
73474;SDS011;61711;52.266;10.542;2023-08-07T04:46:09;10.70;;;6.32;;
73474;SDS011;61711;52.266;10.542;2023-08-07T04:48:36;8.63;;;5.80;;
73474;SDS011;61711;52.266;10.542;2023-08-07T04:51:02;8.90;;;6.00;;
73474;SDS011;61711;52.266;10.542;2023-08-07T04:53:29;10.02;;;6.03;;
73474;SDS011;61711;52.266;10.542;2023-08-07T04:55:55;11.00;;;6.38;;
73474;SDS011;61711;52.266;10.542;2023-08-07T04:58:20;9.38;;;5.60;;
73474;SDS011;61711;52.266;10.542;2023-08-07T05:00:46;8.80;;;5.47;;
73474;SDS011;61711;52.266;10.542;2023-08-07T05:03:12;9.32;;;5.63;;
73474;SDS011;61711;52.266;10.542;2023-08-07T05:05:40;11.10;;;7.70;;
73474;SDS011;61711;52.266;10.542;2023-08-07T05:08:06;10.00;;;6.25;;
73474;SDS011;61711;52.266;10.542;2023-08-07T05:10:32;12.80;;;5.63;;
73474;SDS011;61711;52.266;10.542;2023-08-07T05:12:58;11.30;;;6.65;;
73474;SDS011;61711;52.266;10.542;2023-08-07T05:15:25;9.68;;;6.18;;
73474;SDS011;61711;52.266;10.542;2023-08-07T05:17:53;13.65;;;6.30;;
73474;SDS011;61711;52.266;10.542;2023-08-07T05:20:19;12.05;;;6.30;;
73474;SDS011;61711;52.266;10.542;2023-08-07T05:22:45;11.35;;;6.25;;
73474;SDS011;61711;52.266;10.542;2023-08-07T05:25:11;14.45;;;6.22;;
73474;SDS011;61711;52.266;10.542;2023-08-07T05:27:40;11.88;;;6.55;;
73474;SDS011;61711;52.266;10.542;2023-08-07T05:30:06;10.25;;;6.55;;
73474;SDS011;61711;52.266;10.542;2023-08-07T05:32:35;9.93;;;6.97;;
73474;SDS011;61711;52.266;10.542;2023-08-07T05:35:03;10.90;;;6.82;;
73474;SDS011;61711;52.266;10.542;2023-08-07T05:37:30;9.65;;;6.57;;
73474;SDS011;61711;52.266;10.542;2023-08-07T05:39:56;14.02;;;7.30;;
73474;SDS011;61711;52.266;10.542;2023-08-07T05:42:22;12.88;;;7.15;;
73474;SDS011;61711;52.266;10.542;2023-08-07T05:44:48;14.30;;;7.90;;
73474;SDS011;61711;52.266;10.542;2023-08-07T05:47:14;13.50;;;7.70;;
73474;SDS011;61711;52.266;10.542;2023-08-07T05:49:41;11.55;;;6.85;;
73474;SDS011;61711;52.266;10.542;2023-08-07T05:52:07;12.73;;;7.25;;
73474;SDS011;61711;52.266;10.542;2023-08-07T05:54:33;11.25;;;7.50;;
73474;SDS011;61711;52.266;10.542;2023-08-07T05:56:59;10.20;;;7.32;;
73474;SDS011;61711;52.266;10.542;2023-08-07T05:59:25;12.65;;;7.38;;
73474;SDS011;61711;52.266;10.542;2023-08-07T06:01:52;13.63;;;7.28;;
73474;SDS011;61711;52.266;10.542;2023-08-07T06:04:18;15.40;;;7.50;;
73474;SDS011;61711;52.266;10.542;2023-08-07T06:06:45;13.35;;;7.53;;
73474;SDS011;61711;52.266;10.542;2023-08-07T06:09:11;11.20;;;7.18;;
73474;SDS011;61711;52.266;10.542;2023-08-07T06:11:39;13.25;;;7.05;;
73474;SDS011;61711;52.266;10.542;2023-08-07T06:14:05;14.45;;;7.90;;
73474;SDS011;61711;52.266;10.542;2023-08-07T06:16:31;13.18;;;7.28;;
73474;SDS011;61711;52.266;10.542;2023-08-07T06:18:57;11.40;;;7.13;;
73474;SDS011;61711;52.266;10.542;2023-08-07T06:21:23;17.52;;;7.70;;
73474;SDS011;61711;52.266;10.542;2023-08-07T06:23:49;12.40;;;7.88;;
73474;SDS011;61711;52.266;10.542;2023-08-07T06:26:15;12.10;;;8.10;;
73474;SDS011;61711;52.266;10.542;2023-08-07T06:28:42;13.40;;;8.20;;
73474;SDS011;61711;52.266;10.542;2023-08-07T06:31:08;13.20;;;7.43;;
73474;SDS011;61711;52.266;10.542;2023-08-07T06:33:35;12.70;;;8.07;;
73474;SDS011;61711;52.266;10.542;2023-08-07T06:36:02;11.05;;;7.60;;
73474;SDS011;61711;52.266;10.542;2023-08-07T06:38:28;12.70;;;7.75;;
73474;SDS011;61711;52.266;10.542;2023-08-07T06:40:54;11.05;;;7.90;;
73474;SDS011;61711;52.266;10.542;2023-08-07T06:43:20;10.35;;;7.28;;
73474;SDS011;61711;52.266;10.542;2023-08-07T06:45:46;10.43;;;6.90;;
73474;SDS011;61711;52.266;10.542;2023-08-07T06:48:12;9.88;;;6.68;;
73474;SDS011;61711;52.266;10.542;2023-08-07T06:50:38;7.68;;;5.80;;
73474;SDS011;61711;52.266;10.542;2023-08-07T06:53:04;6.13;;;5.00;;
73474;SDS011;61711;52.266;10.542;2023-08-07T06:55:30;5.70;;;3.50;;
73474;SDS011;61711;52.266;10.542;2023-08-07T06:57:58;5.93;;;3.80;;
73474;SDS011;61711;52.266;10.542;2023-08-07T07:00:23;8.50;;;4.80;;
73474;SDS011;61711;52.266;10.542;2023-08-07T07:02:49;11.77;;;6.57;;
73474;SDS011;61711;52.266;10.542;2023-08-07T07:05:15;10.95;;;6.63;;
73474;SDS011;61711;52.266;10.542;2023-08-07T07:07:41;9.65;;;6.95;;
73474;SDS011;61711;52.266;10.542;2023-08-07T07:10:08;9.63;;;7.78;;
73474;SDS011;61711;52.266;10.542;2023-08-07T07:12:34;12.18;;;7.78;;
73474;SDS011;61711;52.266;10.542;2023-08-07T07:15:00;9.80;;;7.28;;
73474;SDS011;61711;52.266;10.542;2023-08-07T07:17:26;9.77;;;7.45;;
73474;SDS011;61711;52.266;10.542;2023-08-07T07:19:52;9.75;;;7.65;;
73474;SDS011;61711;52.266;10.542;2023-08-07T07:22:18;9.70;;;7.15;;
73474;SDS011;61711;52.266;10.542;2023-08-07T07:24:44;9.90;;;7.07;;
73474;SDS011;61711;52.266;10.542;2023-08-07T07:27:10;10.10;;;7.10;;
73474;SDS011;61711;52.266;10.542;2023-08-07T07:29:36;8.45;;;6.97;;
73474;SDS011;61711;52.266;10.542;2023-08-07T07:32:02;10.63;;;6.90;;
73474;SDS011;61711;52.266;10.542;2023-08-07T07:34:28;9.32;;;6.50;;
73474;SDS011;61711;52.266;10.542;2023-08-07T07:36:54;9.32;;;6.30;;
73474;SDS011;61711;52.266;10.542;2023-08-07T07:39:20;8.95;;;6.18;;
73474;SDS011;61711;52.266;10.542;2023-08-07T07:41:46;7.93;;;6.05;;
73474;SDS011;61711;52.266;10.542;2023-08-07T07:44:12;8.15;;;5.93;;
73474;SDS011;61711;52.266;10.542;2023-08-07T07:46:38;7.40;;;5.20;;
73474;SDS011;61711;52.266;10.542;2023-08-07T07:49:05;8.68;;;5.97;;
73474;SDS011;61711;52.266;10.542;2023-08-07T07:51:31;7.45;;;5.00;;
73474;SDS011;61711;52.266;10.542;2023-08-07T07:53:58;6.07;;;4.78;;
73474;SDS011;61711;52.266;10.542;2023-08-07T07:56:24;6.20;;;4.63;;
73474;SDS011;61711;52.266;10.542;2023-08-07T07:58:50;6.07;;;4.50;;
73474;SDS011;61711;52.266;10.542;2023-08-07T08:01:16;6.57;;;4.63;;
73474;SDS011;61711;52.266;10.542;2023-08-07T08:03:43;4.82;;;4.30;;
73474;SDS011;61711;52.266;10.542;2023-08-07T08:06:11;5.50;;;4.25;;
73474;SDS011;61711;52.266;10.542;2023-08-07T08:08:38;7.03;;;4.63;;
73474;SDS011;61711;52.266;10.542;2023-08-07T08:11:04;4.88;;;4.30;;
73474;SDS011;61711;52.266;10.542;2023-08-07T08:13:30;6.90;;;4.25;;
73474;SDS011;61711;52.266;10.542;2023-08-07T08:15:56;5.88;;;4.75;;
73474;SDS011;61711;52.266;10.542;2023-08-07T08:18:23;5.72;;;4.47;;
73474;SDS011;61711;52.266;10.542;2023-08-07T08:20:49;5.95;;;4.50;;
73474;SDS011;61711;52.266;10.542;2023-08-07T08:23:15;6.47;;;4.53;;
73474;SDS011;61711;52.266;10.542;2023-08-07T08:25:41;6.28;;;4.13;;
73474;SDS011;61711;52.266;10.542;2023-08-07T08:28:07;4.30;;;3.90;;
73474;SDS011;61711;52.266;10.542;2023-08-07T08:30:33;7.15;;;4.40;;
73474;SDS011;61711;52.266;10.542;2023-08-07T08:32:59;5.57;;;4.07;;
73474;SDS011;61711;52.266;10.542;2023-08-07T08:35:25;6.95;;;4.88;;
73474;SDS011;61711;52.266;10.542;2023-08-07T08:37:51;9.32;;;3.92;;
73474;SDS011;61711;52.266;10.542;2023-08-07T08:40:17;4.28;;;3.80;;
73474;SDS011;61711;52.266;10.542;2023-08-07T08:42:44;4.50;;;4.10;;
73474;SDS011;61711;52.266;10.542;2023-08-07T08:45:12;4.30;;;3.90;;
73474;SDS011;61711;52.266;10.542;2023-08-07T08:47:39;6.75;;;4.18;;
73474;SDS011;61711;52.266;10.542;2023-08-07T08:50:09;5.57;;;4.15;;
73474;SDS011;61711;52.266;10.542;2023-08-07T08:52:37;4.43;;;3.95;;
73474;SDS011;61711;52.266;10.542;2023-08-07T08:55:03;5.20;;;3.60;;
73474;SDS011;61711;52.266;10.542;2023-08-07T08:57:29;5.18;;;3.80;;
73474;SDS011;61711;52.266;10.542;2023-08-07T08:59:56;5.15;;;3.50;;
73474;SDS011;61711;52.266;10.542;2023-08-07T09:02:22;6.07;;;3.53;;
73474;SDS011;61711;52.266;10.542;2023-08-07T09:04:48;4.20;;;3.08;;
73474;SDS011;61711;52.266;10.542;2023-08-07T09:07:15;4.22;;;3.17;;
73474;SDS011;61711;52.266;10.542;2023-08-07T09:09:44;3.65;;;3.28;;
73474;SDS011;61711;52.266;10.542;2023-08-07T09:12:13;3.60;;;3.00;;
73474;SDS011;61711;52.266;10.542;2023-08-07T09:14:41;6.28;;;3.10;;
73474;SDS011;61711;52.266;10.542;2023-08-07T09:17:10;4.80;;;3.38;;
73474;SDS011;61711;52.266;10.542;2023-08-07T09:19:37;5.57;;;3.50;;
73474;SDS011;61711;52.266;10.542;2023-08-07T09:22:03;5.75;;;3.20;;
73474;SDS011;61711;52.266;10.542;2023-08-07T09:24:29;4.45;;;3.10;;
73474;SDS011;61711;52.266;10.542;2023-08-07T09:26:55;5.85;;;3.30;;
73474;SDS011;61711;52.266;10.542;2023-08-07T09:29:23;4.30;;;2.92;;
73474;SDS011;61711;52.266;10.542;2023-08-07T09:31:49;4.90;;;2.90;;
73474;SDS011;61711;52.266;10.542;2023-08-07T09:34:15;4.07;;;2.75;;
73474;SDS011;61711;52.266;10.542;2023-08-07T09:36:45;6.93;;;3.00;;
73474;SDS011;61711;52.266;10.542;2023-08-07T09:39:11;4.50;;;3.15;;
73474;SDS011;61711;52.266;10.542;2023-08-07T09:41:37;7.05;;;3.58;;
73474;SDS011;61711;52.266;10.542;2023-08-07T09:44:06;7.88;;;3.50;;
73474;SDS011;61711;52.266;10.542;2023-08-07T09:46:40;7.00;;;3.30;;
73474;SDS011;61711;52.266;10.542;2023-08-07T09:49:06;6.32;;;3.40;;
73474;SDS011;61711;52.266;10.542;2023-08-07T09:51:42;10.00;;;3.33;;
73474;SDS011;61711;52.266;10.542;2023-08-07T09:54:08;5.30;;;3.25;;
73474;SDS011;61711;52.266;10.542;2023-08-07T09:56:35;5.88;;;3.20;;
73474;SDS011;61711;52.266;10.542;2023-08-07T09:59:01;7.60;;;3.15;;
73474;SDS011;61711;52.266;10.542;2023-08-07T10:01:27;5.53;;;2.63;;
73474;SDS011;61711;52.266;10.542;2023-08-07T10:03:53;3.85;;;2.40;;
73474;SDS011;61711;52.266;10.542;2023-08-07T10:06:20;5.70;;;2.67;;
73474;SDS011;61711;52.266;10.542;2023-08-07T10:08:46;5.60;;;2.25;;
73474;SDS011;61711;52.266;10.542;2023-08-07T10:11:12;3.72;;;2.25;;
73474;SDS011;61711;52.266;10.542;2023-08-07T10:13:39;4.68;;;2.50;;
73474;SDS011;61711;52.266;10.542;2023-08-07T10:16:06;6.40;;;2.40;;
73474;SDS011;61711;52.266;10.542;2023-08-07T10:18:33;5.15;;;2.50;;
73474;SDS011;61711;52.266;10.542;2023-08-07T10:21:00;5.40;;;2.63;;
73474;SDS011;61711;52.266;10.542;2023-08-07T10:23:26;7.10;;;2.80;;
73474;SDS011;61711;52.266;10.542;2023-08-07T10:25:52;6.28;;;2.40;;
73474;SDS011;61711;52.266;10.542;2023-08-07T10:28:19;6.80;;;2.60;;
73474;SDS011;61711;52.266;10.542;2023-08-07T10:30:45;10.43;;;2.90;;
73474;SDS011;61711;52.266;10.542;2023-08-07T10:33:13;9.60;;;4.07;;
73474;SDS011;61711;52.266;10.542;2023-08-07T10:35:44;7.78;;;3.40;;
73474;SDS011;61711;52.266;10.542;2023-08-07T10:38:12;9.48;;;3.25;;
73474;SDS011;61711;52.266;10.542;2023-08-07T10:43:23;8.48;;;3.72;;
73474;SDS011;61711;52.266;10.542;2023-08-07T10:45:49;8.00;;;3.30;;
73474;SDS011;61711;52.266;10.542;2023-08-07T10:48:18;8.07;;;3.45;;
73474;SDS011;61711;52.266;10.542;2023-08-07T10:53:20;10.32;;;3.28;;
73474;SDS011;61711;52.266;10.542;2023-08-07T10:55:47;9.55;;;3.08;;
73474;SDS011;61711;52.266;10.542;2023-08-07T10:58:26;6.72;;;3.20;;
73474;SDS011;61711;52.266;10.542;2023-08-07T11:01:14;5.55;;;3.38;;
73474;SDS011;61711;52.266;10.542;2023-08-07T11:03:40;7.00;;;3.03;;
73474;SDS011;61711;52.266;10.542;2023-08-07T11:06:06;9.98;;;2.95;;
73474;SDS011;61711;52.266;10.542;2023-08-07T11:08:34;8.38;;;2.95;;
73474;SDS011;61711;52.266;10.542;2023-08-07T11:11:03;5.50;;;3.03;;
73474;SDS011;61711;52.266;10.542;2023-08-07T11:13:30;5.88;;;2.95;;
73474;SDS011;61711;52.266;10.542;2023-08-07T11:15:56;7.47;;;2.95;;
73474;SDS011;61711;52.266;10.542;2023-08-07T11:18:22;5.60;;;2.58;;
73474;SDS011;61711;52.266;10.542;2023-08-07T11:20:48;6.63;;;2.35;;
73474;SDS011;61711;52.266;10.542;2023-08-07T11:23:14;4.35;;;2.40;;
73474;SDS011;61711;52.266;10.542;2023-08-07T11:25:41;7.38;;;2.42;;
73474;SDS011;61711;52.266;10.542;2023-08-07T11:28:07;3.83;;;1.73;;
73474;SDS011;61711;52.266;10.542;2023-08-07T11:30:33;2.35;;;1.30;;
73474;SDS011;61711;52.266;10.542;2023-08-07T11:33:00;3.75;;;1.40;;
73474;SDS011;61711;52.266;10.542;2023-08-07T11:35:27;3.42;;;1.70;;
73474;SDS011;61711;52.266;10.542;2023-08-07T11:37:53;3.33;;;1.30;;
73474;SDS011;61711;52.266;10.542;2023-08-07T11:40:19;1.80;;;1.13;;
73474;SDS011;61711;52.266;10.542;2023-08-07T11:42:45;2.88;;;1.38;;
73474;SDS011;61711;52.266;10.542;2023-08-07T11:45:11;6.38;;;1.58;;
73474;SDS011;61711;52.266;10.542;2023-08-07T11:47:38;6.15;;;1.70;;
73474;SDS011;61711;52.266;10.542;2023-08-07T11:50:04;4.82;;;1.70;;
73474;SDS011;61711;52.266;10.542;2023-08-07T11:52:31;6.20;;;1.90;;
73474;SDS011;61711;52.266;10.542;2023-08-07T11:54:57;6.25;;;1.90;;
73474;SDS011;61711;52.266;10.542;2023-08-07T11:57:23;4.05;;;1.75;;
73474;SDS011;61711;52.266;10.542;2023-08-07T11:59:50;5.95;;;1.90;;
73474;SDS011;61711;52.266;10.542;2023-08-07T12:02:16;6.30;;;1.80;;
73474;SDS011;61711;52.266;10.542;2023-08-07T12:04:43;5.40;;;2.13;;
73474;SDS011;61711;52.266;10.542;2023-08-07T12:07:09;7.03;;;1.90;;
73474;SDS011;61711;52.266;10.542;2023-08-07T12:09:36;5.43;;;1.70;;
73474;SDS011;61711;52.266;10.542;2023-08-07T12:12:03;6.15;;;2.03;;
73474;SDS011;61711;52.266;10.542;2023-08-07T12:14:29;7.28;;;1.92;;
73474;SDS011;61711;52.266;10.542;2023-08-07T12:16:55;4.07;;;1.77;;
73474;SDS011;61711;52.266;10.542;2023-08-07T12:19:21;5.72;;;2.00;;
73474;SDS011;61711;52.266;10.542;2023-08-07T12:21:47;6.47;;;2.15;;
73474;SDS011;61711;52.266;10.542;2023-08-07T12:24:13;5.78;;;2.22;;
73474;SDS011;61711;52.266;10.542;2023-08-07T12:26:39;4.90;;;1.90;;
73474;SDS011;61711;52.266;10.542;2023-08-07T12:29:05;6.75;;;2.10;;
73474;SDS011;61711;52.266;10.542;2023-08-07T12:31:31;5.00;;;1.70;;
73474;SDS011;61711;52.266;10.542;2023-08-07T12:33:57;5.55;;;1.65;;
73474;SDS011;61711;52.266;10.542;2023-08-07T12:36:23;3.40;;;1.27;;
73474;SDS011;61711;52.266;10.542;2023-08-07T12:38:49;4.25;;;1.60;;
73474;SDS011;61711;52.266;10.542;2023-08-07T12:41:15;3.92;;;1.50;;
73474;SDS011;61711;52.266;10.542;2023-08-07T12:43:41;2.35;;;1.25;;
73474;SDS011;61711;52.266;10.542;2023-08-07T12:46:07;4.78;;;1.50;;
73474;SDS011;61711;52.266;10.542;2023-08-07T12:48:33;3.20;;;1.30;;
73474;SDS011;61711;52.266;10.542;2023-08-07T12:50:59;5.20;;;1.70;;
73474;SDS011;61711;52.266;10.542;2023-08-07T12:53:25;4.75;;;1.65;;
73474;SDS011;61711;52.266;10.542;2023-08-07T12:55:51;5.05;;;1.50;;
73474;SDS011;61711;52.266;10.542;2023-08-07T12:58:17;5.53;;;1.58;;
73474;SDS011;61711;52.266;10.542;2023-08-07T13:00:46;3.78;;;1.48;;
73474;SDS011;61711;52.266;10.542;2023-08-07T13:03:12;4.65;;;1.30;;
73474;SDS011;61711;52.266;10.542;2023-08-07T13:05:38;4.82;;;1.90;;
73474;SDS011;61711;52.266;10.542;2023-08-07T13:08:04;2.95;;;1.35;;
73474;SDS011;61711;52.266;10.542;2023-08-07T13:10:30;2.15;;;1.13;;
73474;SDS011;61711;52.266;10.542;2023-08-07T13:12:56;3.70;;;1.35;;
73474;SDS011;61711;52.266;10.542;2023-08-07T13:15:23;1.83;;;0.93;;
73474;SDS011;61711;52.266;10.542;2023-08-07T13:17:50;2.33;;;1.15;;
73474;SDS011;61711;52.266;10.542;2023-08-07T13:20:16;3.70;;;1.20;;
73474;SDS011;61711;52.266;10.542;2023-08-07T13:22:43;4.72;;;1.30;;
73474;SDS011;61711;52.266;10.542;2023-08-07T13:25:10;2.72;;;1.67;;
73474;SDS011;61711;52.266;10.542;2023-08-07T13:27:37;5.38;;;1.30;;
73474;SDS011;61711;52.266;10.542;2023-08-07T13:30:04;2.97;;;1.45;;
73474;SDS011;61711;52.266;10.542;2023-08-07T13:32:30;4.03;;;1.60;;
73474;SDS011;61711;52.266;10.542;2023-08-07T13:34:59;3.58;;;1.50;;
73474;SDS011;61711;52.266;10.542;2023-08-07T13:37:26;6.32;;;1.90;;
73474;SDS011;61711;52.266;10.542;2023-08-07T13:39:52;3.53;;;1.55;;
73474;SDS011;61711;52.266;10.542;2023-08-07T13:42:19;5.65;;;1.70;;
73474;SDS011;61711;52.266;10.542;2023-08-07T13:44:45;3.22;;;1.90;;
73474;SDS011;61711;52.266;10.542;2023-08-07T13:47:12;5.72;;;2.03;;
73474;SDS011;61711;52.266;10.542;2023-08-07T13:49:39;5.70;;;1.65;;
73474;SDS011;61711;52.266;10.542;2023-08-07T13:52:05;3.88;;;1.88;;
73474;SDS011;61711;52.266;10.542;2023-08-07T13:54:33;6.75;;;2.00;;
73474;SDS011;61711;52.266;10.542;2023-08-07T13:56:59;3.78;;;1.50;;
73474;SDS011;61711;52.266;10.542;2023-08-07T13:59:28;7.22;;;2.13;;
73474;SDS011;61711;52.266;10.542;2023-08-07T14:01:54;4.53;;;1.75;;
73474;SDS011;61711;52.266;10.542;2023-08-07T14:04:21;4.28;;;1.63;;
73474;SDS011;61711;52.266;10.542;2023-08-07T14:06:47;6.60;;;2.05;;
73474;SDS011;61711;52.266;10.542;2023-08-07T14:09:13;4.28;;;1.80;;
73474;SDS011;61711;52.266;10.542;2023-08-07T14:14:12;7.95;;;2.40;;
73474;SDS011;61711;52.266;10.542;2023-08-07T14:16:38;6.03;;;2.25;;
73474;SDS011;61711;52.266;10.542;2023-08-07T14:19:05;4.90;;;2.05;;
73474;SDS011;61711;52.266;10.542;2023-08-07T14:21:31;9.32;;;2.53;;
73474;SDS011;61711;52.266;10.542;2023-08-07T14:23:57;6.15;;;2.13;;
73474;SDS011;61711;52.266;10.542;2023-08-07T14:26:23;7.28;;;2.30;;
73474;SDS011;61711;52.266;10.542;2023-08-07T14:28:49;5.03;;;1.95;;
73474;SDS011;61711;52.266;10.542;2023-08-07T14:31:15;4.97;;;2.10;;
73474;SDS011;61711;52.266;10.542;2023-08-07T14:33:42;6.60;;;2.50;;
73474;SDS011;61711;52.266;10.542;2023-08-07T14:36:08;8.23;;;2.10;;
73474;SDS011;61711;52.266;10.542;2023-08-07T14:38:34;6.63;;;2.25;;